Time;durP1;ratioP1;P1;durP2;ratioP2;P2;SDS_P1;SDS_P2;PMS_P1;PMS_P2;Temp;Humidity;BMP_temperature;BMP_pressure;BME280_temperature;BME280_humidity;BME280_pressure;Samples;Min_cycle;Max_cycle;Signal;HPM_P1;HPM_P2
2024/02/21 00:01:45;;;;;;;29.90;7.80;;;;;;;7.76;100.00;100895.89;183138;1234;58242;-82
2024/02/21 00:05:47;;;;;;;32.50;9.60;;;;;;;7.80;100.00;100894.98;182409;1235;46097;-81
2024/02/21 00:09:48;;;;;;;17.70;7.50;;;;;;;7.84;100.00;100889.38;182339;1237;46144;-81
2024/02/21 00:13:50;;;;;;;10.40;5.70;;;;;;;7.88;100.00;100887.10;184037;1235;45791;-83
2024/02/21 00:17:52;;;;;;;15.70;6.90;;;;;;;7.91;100.00;100886.70;183328;1234;45887;-76
2024/02/21 00:21:54;;;;;;;14.20;6.00;;;;;;;7.95;100.00;100885.59;182882;1233;59291;-77
2024/02/21 00:25:58;;;;;;;20.90;6.90;;;;;;;7.97;100.00;100882.11;183232;1234;45953;-77
2024/02/21 00:30:02;;;;;;;11.20;6.00;;;;;;;8.00;100.00;100878.92;182307;1234;45983;-77
2024/02/21 00:34:04;;;;;;;16.70;5.80;;;;;;;8.02;100.00;100875.64;182313;1237;46087;-77
2024/02/21 00:38:06;;;;;;;15.10;6.30;;;;;;;8.04;100.00;100864.55;182845;1234;45969;-76
2024/02/21 00:42:11;;;;;;;12.70;5.90;;;;;;;8.05;100.00;100857.05;182423;1237;59443;-76
2024/02/21 00:46:13;;;;;;;17.40;6.60;;;;;;;8.08;100.00;100859.69;184752;1234;46163;-76
2024/02/21 00:50:15;;;;;;;15.40;6.80;;;;;;;8.13;100.00;100857.64;184935;1235;43764;-74
2024/02/21 00:54:19;;;;;;;17.70;6.30;;;;;;;8.15;100.00;100855.20;185422;1233;43965;-75
2024/02/21 00:58:21;;;;;;;14.50;6.10;;;;;;;8.15;100.00;100850.98;183416;1234;44146;-74
2024/02/21 01:02:23;;;;;;;8.90;5.70;;;;;;;8.11;100.00;100847.83;182366;1237;57945;-74
2024/02/21 01:06:25;;;;;;;11.50;4.70;;;;;;;8.07;100.00;100845.81;184255;1237;46066;-76
2024/02/21 01:10:29;;;;;;;18.00;4.70;;;;;;;8.03;100.00;100843.95;185131;1233;44874;-80
2024/02/21 01:14:31;;;;;;;12.10;5.20;;;;;;;7.98;100.00;100837.90;183709;1233;45992;-80
2024/02/21 01:18:39;;;;;;;20.60;5.30;;;;;;;7.91;100.00;100836.91;183120;1234;46075;-79
2024/02/21 01:22:42;;;;;;;11.30;4.40;;;;;;;7.83;100.00;100827.48;183141;1234;57788;-80
2024/02/21 01:26:44;;;;;;;13.50;4.00;;;;;;;7.78;100.00;100820.56;184094;1233;45956;-79
2024/02/21 01:30:45;;;;;;;13.80;5.80;;;;;;;7.74;100.00;100812.88;183159;1234;46004;-80
2024/02/21 01:34:47;;;;;;;12.60;5.50;;;;;;;7.70;100.00;100806.38;183549;1234;44199;-80
2024/02/21 01:38:49;;;;;;;11.50;5.90;;;;;;;7.67;100.00;100801.47;183693;1233;45893;-80
2024/02/21 01:42:55;;;;;;;13.80;5.60;;;;;;;7.69;100.00;100797.80;184540;1235;58164;-81
2024/02/21 01:46:57;;;;;;;;;;;;;;;7.73;100.00;100794.23;182381;1237;46514;-80
2024/02/21 01:50:59;;;;;;;26.90;7.30;;;;;;;7.74;100.00;100790.45;183089;1233;45721;-80
2024/02/21 01:55:02;;;;;;;23.40;7.90;;;;;;;7.76;100.00;100782.52;183250;1233;46101;-81
2024/02/21 01:59:03;;;;;;;15.60;6.00;;;;;;;7.79;100.00;100780.08;182689;1234;46175;-80
2024/02/21 02:03:05;;;;;;;14.40;5.40;;;;;;;7.80;100.00;100776.64;182361;1236;58761;-80
2024/02/21 02:07:07;;;;;;;18.50;6.00;;;;;;;7.80;100.00;100773.81;183224;1234;45412;-81
2024/02/21 02:11:10;;;;;;;12.10;5.80;;;;;;;7.81;100.00;100768.98;184262;1233;45960;-80
2024/02/21 02:15:18;;;;;;;13.40;6.20;;;;;;;7.83;100.00;100764.27;182196;1235;46088;-79
2024/02/21 02:19:20;;;;;;;11.40;7.30;;;;;;;7.83;100.00;100757.56;183891;1234;46036;-76
2024/02/21 02:23:29;;;;;;;18.00;7.20;;;;;;;7.85;100.00;100754.59;184433;1234;60007;-76
2024/02/21 02:27:31;;;;;;;14.60;5.90;;;;;;;7.89;100.00;100749.63;182489;1234;46114;-76
2024/02/21 02:31:36;;;;;;;15.70;4.50;;;;;;;7.92;100.00;100751.40;181952;1237;46141;-76
2024/02/21 02:35:38;;;;;;;12.90;5.60;;;;;;;7.94;100.00;100748.45;182802;1234;45896;-77
2024/02/21 02:39:40;;;;;;;19.00;6.20;;;;;;;7.95;100.00;100742.86;182621;1235;46643;-76
2024/02/21 02:43:42;;;;;;;14.10;7.40;;;;;;;7.95;100.00;100739.33;182367;1237;58154;-76
2024/02/21 02:47:47;;;;;;;11.40;5.20;;;;;;;7.96;100.00;100734.48;183373;1234;45922;-77
2024/02/21 02:51:53;;;;;;;15.50;7.30;;;;;;;8.00;100.00;100733.21;182637;1234;46175;-74
2024/02/21 02:55:54;;;;;;;20.60;6.90;;;;;;;8.00;100.00;100729.11;182937;1234;46003;-77
2024/02/21 02:59:59;;;;;;;11.40;4.40;;;;;;;8.00;100.00;100730.19;182176;1237;46062;-76
2024/02/21 03:04:03;;;;;;;14.60;5.10;;;;;;;8.00;100.00;100718.73;184378;1234;59303;-76
2024/02/21 03:08:06;;;;;;;8.00;5.20;;;;;;;7.99;100.00;100715.92;184394;1234;46066;-76
2024/02/21 03:12:08;;;;;;;14.10;6.40;;;;;;;8.03;100.00;100712.38;182882;1234;46063;-77
2024/02/21 03:16:10;;;;;;;14.30;5.80;;;;;;;8.07;100.00;100709.47;184222;1234;43917;-76
2024/02/21 03:20:16;;;;;;;19.20;6.60;;;;;;;8.04;100.00;100705.95;182562;1234;46066;-76
2024/02/21 03:24:19;;;;;;;16.20;4.70;;;;;;;8.05;100.00;100703.72;183973;1234;58772;-76
2024/02/21 03:28:21;;;;;;;20.90;6.80;;;;;;;8.08;100.00;100700.02;183050;1234;45990;-77
2024/02/21 03:32:24;;;;;;;12.30;6.00;;;;;;;8.07;100.00;100698.11;184545;1237;43730;-76
2024/02/21 03:36:30;;;;;;;10.80;4.90;;;;;;;8.08;100.00;100692.59;182826;1234;46232;-76
2024/02/21 03:40:33;;;;;;;13.80;5.80;;;;;;;8.07;100.00;100689.81;184995;1234;43956;-76
2024/02/21 03:44:34;;;;;;;17.20;5.10;;;;;;;8.10;100.00;100691.96;183549;1234;59400;-76
2024/02/21 03:48:36;;;;;;;13.90;5.90;;;;;;;8.10;100.00;100692.28;183740;1235;45992;-76
2024/02/21 03:52:38;;;;;;;13.50;5.60;;;;;;;8.09;100.00;100687.92;182806;1235;46029;-76
2024/02/21 03:56:40;;;;;;;8.10;4.30;;;;;;;8.05;100.00;100685.91;182648;1233;46001;-76
2024/02/21 04:00:41;;;;;;;15.00;6.10;;;;;;;8.01;100.00;100688.29;182571;1236;44826;-76
2024/02/21 04:04:46;;;;;;;14.50;5.30;;;;;;;8.05;100.00;100682.73;182125;1237;58732;-76
2024/02/21 04:08:48;;;;;;;16.20;6.40;;;;;;;8.04;100.00;100681.70;182781;1236;45970;-76
2024/02/21 04:12:50;;;;;;;15.60;5.60;;;;;;;8.05;100.00;100677.24;183171;1234;44025;-77
2024/02/21 04:16:51;;;;;;;12.50;4.90;;;;;;;8.07;100.00;100675.91;182336;1237;46082;-77
2024/02/21 04:20:53;;;;;;;11.80;6.60;;;;;;;8.07;100.00;100673.39;182219;1234;46059;-77
2024/02/21 04:24:54;;;;;;;12.70;5.90;;;;;;;8.09;100.00;100667.79;182027;1238;57558;-75
2024/02/21 04:28:56;;;;;;;11.50;4.20;;;;;;;8.12;100.00;100664.94;183066;1233;45888;-76
2024/02/21 04:32:58;;;;;;;20.20;5.90;;;;;;;8.17;100.00;100662.01;183077;1237;46157;-76
2024/02/21 04:36:59;;;;;;;14.10;5.90;;;;;;;8.19;100.00;100653.23;183066;1235;45954;-76
2024/02/21 04:41:01;;;;;;;15.20;5.50;;;;;;;8.19;100.00;100651.24;182037;1234;45959;-76
2024/02/21 04:45:03;;;;;;;14.20;5.10;;;;;;;8.21;100.00;100647.94;182935;1233;59253;-77
2024/02/21 04:49:05;;;;;;;8.20;4.90;;;;;;;8.23;100.00;100646.05;182170;1233;45990;-76
2024/02/21 04:53:06;;;;;;;12.60;4.90;;;;;;;8.25;100.00;100642.18;183070;1234;46090;-77
2024/02/21 04:57:10;;;;;;;17.20;6.60;;;;;;;8.27;100.00;100641.21;182241;1234;46047;-75
2024/02/21 05:01:11;;;;;;;17.00;6.10;;;;;;;8.30;100.00;100638.00;182742;1237;46135;-75
2024/02/21 05:05:15;;;;;;;15.80;5.50;;;;;;;8.29;100.00;100639.09;183004;1234;59426;-76
2024/02/21 05:09:16;;;;;;;15.00;4.80;;;;;;;8.33;100.00;100642.04;182919;1237;46174;-77
2024/02/21 05:13:19;;;;;;;10.10;4.80;;;;;;;8.35;100.00;100640.16;183025;1235;45930;-77
2024/02/21 05:17:20;;;;;;;13.10;6.20;;;;;;;8.30;100.00;100636.05;184926;1235;45974;-77
2024/02/21 05:21:23;;;;;;;8.30;5.30;;;;;;;8.33;100.00;100633.91;185351;1234;45970;-77
2024/02/21 05:25:25;;;;;;;10.80;5.50;;;;;;;8.35;100.00;100629.85;181905;1237;59184;-76
2024/02/21 05:29:30;;;;;;;11.80;5.40;;;;;;;8.35;100.00;100629.72;183900;1237;45922;-76
2024/02/21 05:33:32;;;;;;;9.80;5.60;;;;;;;8.32;100.00;100627.64;183774;1234;44602;-77
2024/02/21 05:37:34;;;;;;;11.50;4.90;;;;;;;8.26;100.00;100626.59;183395;1237;45985;-77
2024/02/21 05:41:39;;;;;;;10.00;5.70;;;;;;;8.21;100.00;100621.10;183986;1236;46046;-77
2024/02/21 05:45:43;;;;;;;16.80;5.20;;;;;;;8.16;100.00;100620.33;183617;1234;59234;-77
2024/02/21 05:49:45;;;;;;;19.50;7.90;;;;;;;8.10;100.00;100620.00;182519;1234;45986;-77
2024/02/21 05:53:49;;;;;;;8.10;5.70;;;;;;;8.07;100.00;100621.80;183148;1235;43979;-77
2024/02/21 05:57:53;;;;;;;11.50;6.30;;;;;;;8.05;100.00;100623.52;183763;1234;45925;-77
2024/02/21 06:01:58;;;;;;;11.90;6.80;;;;;;;8.02;100.00;100612.26;182998;1235;45948;-77
2024/02/21 06:06:00;;;;;;;18.00;6.40;;;;;;;8.00;100.00;100613.10;184306;1235;58350;-77
2024/02/21 06:10:05;;;;;;;17.40;7.40;;;;;;;7.96;100.00;100613.90;182645;1234;46190;-76
2024/02/21 06:14:06;;;;;;;8.90;6.00;;;;;;;7.92;100.00;100613.64;183544;1237;45958;-76
2024/02/21 06:18:09;;;;;;;15.90;7.70;;;;;;;7.89;100.00;100608.35;181713;1235;46104;-76
2024/02/21 06:22:14;;;;;;;17.60;7.70;;;;;;;7.86;100.00;100605.84;182223;1237;46056;-76
2024/02/21 06:26:15;;;;;;;11.90;7.50;;;;;;;7.87;100.00;100608.83;183086;1234;58103;-77
2024/02/21 06:30:19;;;;;;;8.00;6.80;;;;;;;7.85;100.00;100612.27;182720;1235;45977;-77
2024/02/21 06:34:21;;;;;;;14.70;7.00;;;;;;;7.85;100.00;100612.44;182608;1235;45929;-77
2024/02/21 06:38:25;;;;;;;13.10;7.10;;;;;;;7.85;100.00;100610.00;182618;1233;45997;-76
2024/02/21 06:42:33;;;;;;;13.70;7.20;;;;;;;7.87;100.00;100605.27;183406;1238;45843;-77
2024/02/21 06:46:35;;;;;;;11.40;7.40;;;;;;;7.92;100.00;100600.05;182660;1235;57832;-78
2024/02/21 06:50:37;;;;;;;13.90;7.10;;;;;;;7.94;100.00;100602.90;183971;1234;46119;-77
2024/02/21 06:54:39;;;;;;;12.30;7.00;;;;;;;7.96;100.00;100601.55;182837;1235;46219;-77
2024/02/21 06:58:44;;;;;;;13.20;5.20;;;;;;;7.98;100.00;100599.48;183486;1233;45969;-81
2024/02/21 07:02:48;;;;;;;19.80;6.90;;;;;;;8.04;100.00;100596.08;182974;1237;45963;-80
2024/02/21 07:06:50;;;;;;;8.10;5.20;;;;;;;8.12;100.00;100594.63;183478;1234;59703;-81
2024/02/21 07:10:52;;;;;;;13.50;7.30;;;;;;;8.22;100.00;100594.14;184020;1233;45967;-81
2024/02/21 07:15:00;;;;;;;16.00;7.60;;;;;;;8.32;100.00;100590.66;182769;1237;44659;-81
2024/02/21 07:19:03;;;;;;;11.50;5.70;;;;;;;8.40;100.00;100585.73;183490;1233;46424;-81
2024/02/21 07:23:05;;;;;;;15.30;5.80;;;;;;;8.48;100.00;100581.83;182040;1234;45813;-78
2024/02/21 07:27:08;;;;;;;15.30;6.50;;;;;;;8.55;100.00;100581.55;183055;1233;59364;-79
2024/02/21 07:31:09;;;;;;;14.60;6.50;;;;;;;8.59;100.00;100574.41;182644;1234;46018;-81
2024/02/21 07:35:11;;;;;;;12.70;7.70;;;;;;;8.65;100.00;100573.98;183543;1234;45958;-81
2024/02/21 07:39:14;;;;;;;14.10;7.20;;;;;;;8.73;100.00;100572.91;183556;1234;46036;-86
2024/02/21 07:43:17;;;;;;;13.20;6.20;;;;;;;8.76;100.00;100570.19;182448;1237;45833;-86
2024/02/21 07:47:19;;;;;;;10.80;5.80;;;;;;;8.80;100.00;100563.06;182377;1235;57962;-86
2024/02/21 07:51:21;;;;;;;19.60;7.50;;;;;;;8.82;100.00;100560.05;182568;1234;45989;-86
2024/02/21 07:55:24;;;;;;;9.60;6.10;;;;;;;8.84;100.00;100556.41;182639;1233;46370;-86
2024/02/21 07:59:25;;;;;;;15.90;4.80;;;;;;;8.89;100.00;100560.30;182134;1237;45961;-86
2024/02/21 08:03:30;;;;;;;6.60;4.00;;;;;;;8.97;100.00;100557.08;182468;1234;46466;-86
2024/02/21 08:07:32;;;;;;;9.20;4.10;;;;;;;9.05;100.00;100553.20;182719;1233;57953;-86
2024/02/21 08:11:34;;;;;;;9.70;5.40;;;;;;;9.11;100.00;100551.35;182886;1234;46565;-86
2024/02/21 08:15:39;;;;;;;7.60;5.10;;;;;;;9.18;100.00;100549.05;182140;1237;46077;-86
2024/02/21 08:19:42;;;;;;;15.80;6.00;;;;;;;9.27;100.00;100548.07;182235;1234;46090;-86
2024/02/21 08:23:44;;;;;;;11.10;7.00;;;;;;;9.36;100.00;100539.30;182645;1234;45836;-86
2024/02/21 08:27:46;;;;;;;14.00;6.70;;;;;;;9.44;100.00;100535.37;182490;1234;59124;-86
2024/02/21 08:31:48;;;;;;;16.40;5.60;;;;;;;9.54;100.00;100531.42;182376;1237;46073;-85
2024/02/21 08:35:51;;;;;;;16.10;5.60;;;;;;;9.61;100.00;100531.84;182343;1233;44600;-87
2024/02/21 08:39:54;;;;;;;13.40;6.00;;;;;;;9.65;100.00;100528.34;182501;1234;45964;-85
2024/02/21 08:43:56;;;;;;;10.40;5.00;;;;;;;9.65;100.00;100526.73;182548;1234;46079;-86
2024/02/21 08:47:58;;;;;;;9.50;5.80;;;;;;;9.63;100.00;100521.38;182292;1237;58316;-86
2024/02/21 08:52:02;;;;;;;16.10;5.30;;;;;;;9.65;100.00;100521.65;182552;1237;46084;-86
2024/02/21 08:56:05;;;;;;;10.00;5.00;;;;;;;9.69;100.00;100516.35;182591;1234;46047;-86
2024/02/21 09:00:10;;;;;;;11.10;5.10;;;;;;;9.76;100.00;100516.35;182118;1234;46002;-86
2024/02/21 09:04:12;;;;;;;9.20;5.20;;;;;;;9.84;100.00;100513.66;182190;1237;46074;-86
2024/02/21 09:08:15;;;;;;;20.00;5.50;;;;;;;9.89;100.00;100514.31;182267;1237;59708;-86
2024/02/21 09:12:16;;;;;;;8.40;4.90;;;;;;;9.90;100.00;100511.63;182369;1234;45950;-86
2024/02/21 09:16:18;;;;;;;11.60;5.50;;;;;;;9.90;100.00;100510.90;182217;1234;46211;-86
2024/02/21 09:20:21;;;;;;;10.50;4.70;;;;;;;9.91;100.00;100513.98;182216;1234;45999;-85
2024/02/21 09:24:23;;;;;;;14.30;5.10;;;;;;;9.94;100.00;100512.89;182404;1235;45964;-84
2024/02/21 09:28:25;;;;;;;8.30;4.20;;;;;;;9.98;100.00;100516.17;183044;1234;58107;-85
2024/02/21 09:32:27;;;;;;;5.90;4.20;;;;;;;9.96;100.00;100511.32;182674;1237;46099;-85
2024/02/21 09:36:29;;;;;;;8.00;4.80;;;;;;;9.93;100.00;100512.42;182843;1237;46008;-86
2024/02/21 09:40:31;;;;;;;8.90;3.70;;;;;;;9.86;100.00;100511.91;182607;1233;46113;-85
2024/02/21 09:44:38;;;;;;;13.40;4.40;;;;;;;9.82;100.00;100506.54;182362;1234;46043;-86
2024/02/21 09:49:00;;;;;;;12.50;4.90;;;;;;;9.80;100.00;100504.21;182730;1233;59275;-86
2024/02/21 09:53:04;;;;;;;8.90;4.20;;;;;;;9.82;100.00;100510.59;182963;1234;46139;-84
2024/02/21 09:57:06;;;;;;;12.80;5.40;;;;;;;9.83;100.00;100520.99;183246;1234;45996;-85
2024/02/21 10:01:08;;;;;;;7.60;4.80;;;;;;;9.85;100.00;100520.14;182931;1233;46110;-86
2024/02/21 10:05:27;;;;;;;9.20;6.20;;;;;;;9.98;100.00;100513.16;182892;1238;44752;-85
2024/02/21 10:09:29;;;;;;;14.00;4.80;;;;;;;10.02;100.00;100508.93;182264;1234;57886;-85
2024/02/21 10:13:32;;;;;;;17.40;6.10;;;;;;;10.04;100.00;100511.98;182580;1234;46034;-84
2024/02/21 10:17:33;;;;;;;12.80;7.60;;;;;;;10.05;100.00;100512.48;182905;1234;46059;-84
2024/02/21 10:21:35;;;;;;;11.90;4.70;;;;;;;10.06;100.00;100513.12;182510;1234;46295;-84
2024/02/21 10:25:41;;;;;;;9.30;3.80;;;;;;;10.07;100.00;100506.98;183551;1234;45891;-84
2024/02/21 10:29:50;;;;;;;7.30;3.60;;;;;;;10.15;100.00;100505.31;182529;1234;58893;-84
2024/02/21 10:33:56;;;;;;;9.10;4.30;;;;;;;10.25;100.00;100497.80;182655;1234;45999;-85
2024/02/21 10:37:59;;;;;;;6.70;4.00;;;;;;;10.36;100.00;100494.32;182729;1237;46096;-86
2024/02/21 10:42:05;;;;;;;10.50;4.50;;;;;;;10.47;100.00;100487.61;182332;1237;46107;-86
2024/02/21 10:46:12;;;;;;;5.30;3.80;;;;;;;10.59;100.00;100479.63;182692;1234;46078;-86
2024/02/21 10:50:15;;;;;;;8.70;4.60;;;;;;;10.70;100.00;100471.67;182635;1234;59280;-85
2024/02/21 10:54:38;;;;;;;5.40;4.30;;;;;;;10.89;100.00;100472.78;182562;1234;45990;-85
2024/02/21 10:58:42;;;;;;;9.00;4.60;;;;;;;11.08;100.00;100463.11;182510;1233;45984;-85
2024/02/21 11:02:47;;;;;;;8.50;4.20;;;;;;;11.24;100.00;100454.54;182785;1234;46216;-85
2024/02/21 11:06:49;;;;;;;11.10;4.50;;;;;;;11.36;100.00;100448.67;182855;1237;46066;-85
2024/02/21 11:10:56;;;;;;;6.80;4.00;;;;;;;11.39;99.54;100444.80;182730;1234;59124;-86
2024/02/21 11:15:06;;;;;;;7.30;3.80;;;;;;;11.42;99.82;100445.45;182499;1234;46281;-86
2024/02/21 11:19:09;;;;;;;9.90;3.80;;;;;;;11.47;100.00;100439.02;182687;1234;46055;-85
2024/02/21 11:23:11;;;;;;;7.60;4.80;;;;;;;11.41;97.47;100432.95;182729;1235;46003;-85
2024/02/21 11:27:16;;;;;;;15.30;5.10;;;;;;;11.32;97.86;100431.55;182661;1234;376389;-85
2024/02/21 11:31:18;;;;;;;5.50;4.20;;;;;;;11.27;98.09;100425.71;182670;1237;57899;-83
2024/02/21 11:35:20;;;;;;;7.90;3.60;;;;;;;11.17;96.66;100416.83;182742;1234;46075;-84
2024/02/21 11:39:25;;;;;;;12.50;3.70;;;;;;;11.02;95.51;100412.17;183029;1237;46002;-84
2024/02/21 11:43:27;;;;;;;7.20;5.70;;;;;;;10.97;97.28;100413.31;183053;1233;45011;-80
2024/02/21 11:47:29;;;;;;;13.50;5.00;;;;;;;10.91;96.24;100405.94;184239;1238;45871;-80
2024/02/21 11:51:31;;;;;;;9.70;4.60;;;;;;;10.93;96.88;100399.43;183894;1234;58759;-80
2024/02/21 11:55:34;;;;;;;7.10;4.70;;;;;;;10.93;97.46;100400.09;183475;1233;45846;-80
2024/02/21 11:59:36;;;;;;;7.50;5.00;;;;;;;10.92;98.11;100391.33;183419;1235;46165;-81
2024/02/21 12:03:37;;;;;;;9.20;4.80;;;;;;;10.94;97.89;100395.10;185354;1234;43771;-81
2024/02/21 12:07:40;;;;;;;7.70;5.90;;;;;;;10.94;98.17;100393.14;183529;1233;46149;-80
2024/02/21 12:11:43;;;;;;;12.20;5.60;;;;;;;10.96;98.49;100393.46;183660;1233;59462;-80
2024/02/21 12:15:48;;;;;;;15.10;6.00;;;;;;;10.92;98.21;100389.04;183825;1237;43902;-80
2024/02/21 12:19:50;;;;;;;7.80;5.80;;;;;;;10.82;96.67;100380.04;183335;1233;46051;-80
2024/02/21 12:23:52;;;;;;;7.40;5.40;;;;;;;10.73;96.84;100373.16;182834;1234;46062;-80
2024/02/21 12:27:54;;;;;;;10.80;6.60;;;;;;;10.68;96.89;100374.27;183581;1234;46176;-81
2024/02/21 12:31:55;;;;;;;9.70;6.30;;;;;;;10.64;97.44;100376.40;183876;1234;59336;-81
2024/02/21 12:35:57;;;;;;;9.60;5.70;;;;;;;10.68;98.66;100371.40;182825;1234;45739;-81
2024/02/21 12:39:59;;;;;;;12.50;6.30;;;;;;;10.68;96.75;100358.31;182923;1234;46118;-80
2024/02/21 12:44:01;;;;;;;8.50;6.60;;;;;;;10.70;96.71;100345.16;183769;1234;45957;-81
2024/02/21 12:48:04;;;;;;;13.10;7.60;;;;;;;10.78;96.79;100337.30;183416;1234;46037;-81
2024/02/21 12:52:05;;;;;;;12.30;6.70;;;;;;;10.85;95.36;100334.76;182526;1237;58060;-81
2024/02/21 12:56:07;;;;;;;11.50;8.10;;;;;;;10.96;96.28;100324.27;183094;1234;46041;-81
2024/02/21 13:00:11;;;;;;;15.00;6.80;;;;;;;11.05;94.93;100318.59;182780;1237;46114;-80
2024/02/21 13:04:12;;;;;;;12.40;6.40;;;;;;;11.14;96.07;100315.73;182654;1233;45992;-80
2024/02/21 13:08:14;;;;;;;8.50;5.90;;;;;;;11.23;96.46;100304.14;183937;1235;46064;-80
2024/02/21 13:12:16;;;;;;;13.30;7.10;;;;;;;11.33;95.65;100295.32;183952;1234;58495;-79
2024/02/21 13:16:18;;;;;;;10.00;5.70;;;;;;;11.43;96.06;100281.53;182830;1233;46041;-80
2024/02/21 13:20:20;;;;;;;24.20;7.50;;;;;;;11.49;95.82;100279.01;184916;1236;46133;-80
2024/02/21 13:24:22;;;;;;;10.80;6.50;;;;;;;11.52;95.10;100276.45;183122;1233;46066;-80
2024/02/21 13:28:24;;;;;;;11.30;5.80;;;;;;;11.54;93.94;100275.00;184400;1234;45944;-80
2024/02/21 13:32:25;;;;;;;9.10;5.00;;;;;;;11.53;94.34;100265.19;183585;1234;59956;-80
2024/02/21 13:36:27;;;;;;;10.80;7.40;;;;;;;11.46;92.66;100250.20;184893;1234;46328;-80
2024/02/21 13:40:29;;;;;;;7.40;6.50;;;;;;;11.44;91.72;100242.91;183151;1234;45820;-80
2024/02/21 13:44:30;;;;;;;7.30;5.90;;;;;;;11.41;92.41;100247.24;184364;1234;45574;-80
2024/02/21 13:48:33;;;;;;;11.40;6.50;;;;;;;11.44;93.52;100242.04;182991;1237;46079;-79
2024/02/21 13:52:35;;;;;;;8.00;7.10;;;;;;;11.44;95.33;100232.56;184356;1233;57884;-81
2024/02/21 13:56:37;;;;;;;12.40;5.80;;;;;;;11.46;96.06;100227.80;183071;1237;46022;-80
2024/02/21 14:00:40;;;;;;;17.00;7.30;;;;;;;11.39;93.40;100219.74;183300;1234;46090;-80
2024/02/21 14:04:42;;;;;;;11.70;6.80;;;;;;;11.38;94.81;100224.90;183986;1233;46182;-80
2024/02/21 14:08:44;;;;;;;13.00;6.70;;;;;;;11.39;94.40;100225.77;183870;1234;45972;-80
2024/02/21 14:12:45;;;;;;;9.10;6.70;;;;;;;11.42;95.31;100224.92;183255;1234;58351;-81
2024/02/21 14:16:48;;;;;;;8.60;7.10;;;;;;;11.44;94.76;100220.13;184352;1234;46014;-81
2024/02/21 14:20:49;;;;;;;14.10;7.70;;;;;;;11.48;95.09;100215.42;183620;1233;43992;-81
2024/02/21 14:24:51;;;;;;;13.90;6.60;;;;;;;11.45;94.12;100216.67;183973;1233;45945;-79
2024/02/21 14:28:53;;;;;;;10.30;7.50;;;;;;;11.43;93.46;100221.09;182668;1234;44806;-80
2024/02/21 14:32:54;;;;;;;10.20;7.20;;;;;;;11.40;94.74;100224.77;183321;1237;58554;-80
2024/02/21 14:36:56;;;;;;;10.30;5.90;;;;;;;11.35;94.67;100221.08;182576;1234;45127;-80
2024/02/21 14:40:58;;;;;;;13.00;7.90;;;;;;;11.29;93.78;100213.39;182521;1234;46047;-81
2024/02/21 14:45:03;;;;;;;9.10;7.30;;;;;;;11.26;94.49;100205.36;183588;1235;46002;-81
2024/02/21 14:49:05;;;;;;;12.40;7.40;;;;;;;11.25;95.40;100206.29;183005;1234;46065;-82
2024/02/21 14:53:07;;;;;;;11.40;8.00;;;;;;;11.26;95.33;100201.65;182687;1237;57926;-81
2024/02/21 14:57:09;;;;;;;14.80;7.50;;;;;;;11.27;95.54;100192.50;182291;1234;45961;-81
2024/02/21 15:01:12;;;;;;;15.90;7.90;;;;;;;11.28;96.07;100180.29;183749;1234;46096;-81
2024/02/21 15:05:14;;;;;;;16.00;7.80;;;;;;;11.29;96.44;100171.91;184508;1234;44799;-81
2024/02/21 15:09:19;;;;;;;11.40;7.30;;;;;;;11.27;96.27;100170.95;182939;1234;44841;-81
2024/02/21 15:13:20;;;;;;;14.70;7.10;;;;;;;11.29;96.72;100170.29;183392;1234;59490;-81
2024/02/21 15:17:22;;;;;;;13.80;6.90;;;;;;;11.31;97.74;100168.05;185313;1233;44003;-81
2024/02/21 15:21:24;;;;;;;12.40;7.10;;;;;;;11.21;97.55;100157.89;184836;1234;44055;-80
2024/02/21 15:25:25;;;;;;;12.90;7.10;;;;;;;11.17;98.12;100155.19;183665;1234;45835;-79
2024/02/21 15:29:27;;;;;;;13.10;7.70;;;;;;;11.19;98.97;100147.38;184033;1233;46006;-79
2024/02/21 15:33:29;;;;;;;9.10;6.80;;;;;;;11.24;98.66;100145.14;182983;1234;59639;-78
2024/02/21 15:37:31;;;;;;;10.50;7.40;;;;;;;11.25;98.27;100146.30;183699;1234;46105;-79
2024/02/21 15:41:33;;;;;;;11.00;7.50;;;;;;;11.19;96.71;100137.11;185249;1237;45973;-78
2024/02/21 15:45:35;;;;;;;11.40;6.60;;;;;;;11.15;97.05;100137.27;185065;1237;44108;-79
2024/02/21 15:49:36;;;;;;;9.10;7.80;;;;;;;11.15;96.99;100137.27;185304;1234;46015;-80
2024/02/21 15:53:38;;;;;;;9.50;6.80;;;;;;;11.12;96.03;100140.55;183794;1233;58175;-79
2024/02/21 15:57:40;;;;;;;7.20;6.30;;;;;;;11.03;95.26;100138.66;184903;1234;45844;-79
2024/02/21 16:01:42;;;;;;;20.10;8.10;;;;;;;10.87;95.32;100137.13;184582;1237;45612;-80
2024/02/21 16:05:44;;;;;;;10.40;7.30;;;;;;;10.71;94.99;100135.47;184813;1235;46206;-79
2024/02/21 16:09:47;;;;;;;10.50;7.20;;;;;;;10.47;95.76;100135.88;184238;1237;45996;-79
2024/02/21 16:13:49;;;;;;;10.70;6.80;;;;;;;10.23;97.32;100132.73;183953;1234;57782;-79
2024/02/21 16:17:51;;;;;;;10.30;9.00;;;;;;;9.94;97.89;100133.31;185156;1234;45967;-79
2024/02/21 16:21:53;;;;;;;13.30;9.50;;;;;;;9.70;98.67;100135.21;184498;1234;45903;-79
2024/02/21 16:25:55;;;;;;;20.30;13.10;;;;;;;9.60;98.83;100130.36;183732;1234;45970;-79
2024/02/21 16:29:57;;;;;;;17.70;14.10;;;;;;;9.53;99.12;100125.70;184300;1234;43808;-80
2024/02/21 16:33:59;;;;;;;21.00;14.40;;;;;;;9.36;99.63;100123.39;183332;1235;58420;-80
2024/02/21 16:38:02;;;;;;;21.40;16.00;;;;;;;9.00;100.00;100121.55;183965;1234;46021;-80
2024/02/21 16:42:04;;;;;;;26.70;20.00;;;;;;;8.71;100.00;100118.69;183396;1237;46081;-80
2024/02/21 16:46:06;;;;;;;29.20;19.10;;;;;;;8.47;100.00;100113.34;182735;1237;46123;-80
2024/02/21 16:50:08;;;;;;;30.90;19.90;;;;;;;8.37;100.00;100107.71;183056;1235;45593;-81
2024/02/21 16:54:10;;;;;;;111.80;58.50;;;;;;;8.30;100.00;100100.88;183269;1235;58668;-80
2024/02/21 16:58:12;;;;;;;101.10;53.00;;;;;;;8.21;100.00;100092.69;183792;1234;45852;-80
2024/02/21 17:02:14;;;;;;;82.10;44.40;;;;;;;8.01;100.00;100087.64;183615;1234;46525;-80
2024/02/21 17:06:16;;;;;;;88.20;47.10;;;;;;;7.87;100.00;100086.88;183351;1234;45922;-80
2024/02/21 17:10:20;;;;;;;96.50;54.00;;;;;;;7.77;100.00;100088.50;183489;1234;46083;-81
2024/02/21 17:14:24;;;;;;;66.40;40.20;;;;;;;7.73;100.00;100084.89;183490;1234;58157;-81
2024/02/21 17:18:26;;;;;;;79.40;44.10;;;;;;;7.72;100.00;100081.59;183997;1234;46086;-80
2024/02/21 17:22:28;;;;;;;55.90;33.20;;;;;;;7.70;100.00;100075.56;182542;1237;45976;-81
2024/02/21 17:26:32;;;;;;;42.30;26.90;;;;;;;7.69;100.00;100071.44;183531;1238;45973;-81
2024/02/21 17:30:35;;;;;;;38.60;24.00;;;;;;;7.66;100.00;100062.09;184256;1238;46094;-81
2024/02/21 17:34:37;;;;;;;222.70;126.50;;;;;;;7.65;100.00;100053.89;183451;1234;57990;-81
2024/02/21 17:38:39;;;;;;;349.90;192.60;;;;;;;7.59;100.00;100045.69;182985;1237;46048;-81
2024/02/21 17:42:40;;;;;;;134.90;68.20;;;;;;;7.44;100.00;100037.19;184279;1233;45932;-81
2024/02/21 17:46:42;;;;;;;75.00;39.30;;;;;;;7.15;100.00;100026.92;185386;1234;45746;-81
2024/02/21 17:50:44;;;;;;;85.90;46.10;;;;;;;7.07;100.00;100016.98;183920;1237;46026;-80
2024/02/21 17:54:47;;;;;;;111.90;56.80;;;;;;;6.98;100.00;100007.16;182693;1235;58024;-80
2024/02/21 17:58:48;;;;;;;63.90;44.20;;;;;;;6.88;100.00;100002.56;184576;1234;46097;-79
2024/02/21 18:02:50;;;;;;;75.10;45.10;;;;;;;6.83;100.00;99994.80;184753;1234;44028;-80
2024/02/21 18:06:51;;;;;;;89.00;47.20;;;;;;;6.69;100.00;99990.66;184887;1235;44102;-80
2024/02/21 18:10:53;;;;;;;68.40;40.00;;;;;;;6.52;100.00;99983.55;184752;1237;45990;-79
2024/02/21 18:14:55;;;;;;;88.90;50.70;;;;;;;6.39;100.00;99974.59;182626;1235;57943;-79
2024/02/21 18:19:00;;;;;;;138.30;79.10;;;;;;;6.30;100.00;99970.82;185140;1233;45961;-80
2024/02/21 18:23:02;;;;;;;129.70;73.10;;;;;;;6.27;100.00;99962.91;182183;1237;46559;-80